createdAt,value
2018-05-29T00:01:21.266Z,101367.45
2018-05-29T00:03:48.742Z,101370.09
2018-05-29T00:06:16.249Z,101367.33
2018-05-29T00:08:43.755Z,101370.28
2018-05-29T00:11:11.273Z,101371.98
2018-05-29T00:13:38.759Z,101370.51
2018-05-29T00:16:06.253Z,101376.99
2018-05-29T00:18:33.767Z,101375.05
2018-05-29T00:21:01.402Z,101376.00
2018-05-29T00:23:28.925Z,101381.02
2018-05-29T00:25:56.398Z,101375.44
2018-05-29T00:28:23.866Z,101371.95
2018-05-29T00:30:51.392Z,101367.35
2018-05-29T00:33:18.876Z,101367.81
2018-05-29T00:35:46.395Z,101358.98
2018-05-29T00:38:13.946Z,101362.67
2018-05-29T00:40:41.553Z,101363.33
2018-05-29T00:43:09.054Z,101356.09
2018-05-29T00:45:36.659Z,101353.30
2018-05-29T00:48:04.177Z,101355.28
2018-05-29T00:50:31.653Z,101356.51
2018-05-29T00:52:59.149Z,101351.81
2018-05-29T00:55:37.494Z,101353.66
2018-05-29T00:58:05.000Z,101351.23
2018-05-29T01:00:32.504Z,101352.33
2018-05-29T01:03:00.036Z,101354.73
2018-05-29T01:05:27.531Z,101354.64
2018-05-29T01:07:55.054Z,101352.48
2018-05-29T01:10:22.552Z,101346.23
2018-05-29T01:12:50.096Z,101345.02
2018-05-29T01:15:17.609Z,101354.80
2018-05-29T01:17:45.135Z,101352.81
2018-05-29T01:20:12.624Z,101348.96
2018-05-29T01:22:40.164Z,101342.58
2018-05-29T01:25:07.663Z,101337.57
2018-05-29T01:27:35.148Z,101335.33
2018-05-29T01:30:02.681Z,101335.78
2018-05-29T01:32:30.181Z,101327.04
2018-05-29T01:34:57.704Z,101325.58
2018-05-29T01:37:25.230Z,101319.28
2018-05-29T01:39:52.705Z,101322.61
2018-05-29T01:42:21.153Z,101317.83
2018-05-29T01:44:48.656Z,101315.30
2018-05-29T01:47:16.184Z,101309.21
2018-05-29T01:49:43.702Z,101308.63
2018-05-29T01:52:11.220Z,101307.91
2018-05-29T01:54:38.838Z,101305.30
2018-05-29T01:57:06.325Z,101299.97
2018-05-29T01:59:33.839Z,101296.36
2018-05-29T02:02:01.389Z,101295.77
2018-05-29T02:04:28.967Z,101289.47
2018-05-29T02:06:56.458Z,101285.38
2018-05-29T02:09:23.945Z,101290.97
2018-05-29T02:11:51.479Z,101283.09
2018-05-29T02:14:18.990Z,101286.28
2018-05-29T02:16:46.521Z,101281.77
2018-05-29T02:19:14.007Z,101278.20
2018-05-29T02:21:41.501Z,101277.18
2018-05-29T02:24:09.193Z,101277.65
2018-05-29T02:26:36.688Z,101272.04
2018-05-29T02:29:04.214Z,101275.87
2018-05-29T02:31:31.726Z,101270.73
2018-05-29T02:33:59.243Z,101272.76
2018-05-29T02:36:26.751Z,101270.78
2018-05-29T02:38:54.260Z,101267.63
2018-05-29T02:41:21.769Z,101265.23
2018-05-29T02:43:49.306Z,101275.52
2018-05-29T02:46:16.812Z,101269.00
2018-05-29T02:48:44.323Z,101276.41
2018-05-29T02:51:11.862Z,101273.17
2018-05-29T02:53:39.363Z,101269.93
2018-05-29T02:56:06.913Z,101273.99
2018-05-29T02:58:34.451Z,101271.14
2018-05-29T03:01:01.941Z,101271.89
2018-05-29T03:03:29.450Z,101259.77
2018-05-29T03:05:56.936Z,101266.22
2018-05-29T03:08:24.469Z,101266.78
2018-05-29T03:10:51.967Z,101273.27
2018-05-29T03:13:19.513Z,101273.65
2018-05-29T03:15:46.982Z,101272.58
2018-05-29T03:18:14.463Z,101274.21
2018-05-29T03:20:41.996Z,101279.45
2018-05-29T03:23:09.497Z,101276.50
2018-05-29T03:25:37.013Z,101280.91
2018-05-29T03:28:04.513Z,101285.36
2018-05-29T03:30:32.010Z,101285.42
2018-05-29T03:32:59.551Z,101284.50
2018-05-29T03:35:27.081Z,101280.53
2018-05-29T03:37:54.612Z,101288.67
2018-05-29T03:40:22.135Z,101288.52
2018-05-29T03:42:49.641Z,101291.44
2018-05-29T03:45:17.152Z,101298.00
2018-05-29T03:47:44.649Z,101283.56
2018-05-29T03:50:12.169Z,101291.44
2018-05-29T03:52:39.659Z,101290.97
2018-05-29T03:55:07.168Z,101289.17
2018-05-29T03:57:34.649Z,101292.34
2018-05-29T04:00:03.023Z,101292.03
2018-05-29T04:02:30.656Z,101291.61
2018-05-29T04:05:02.818Z,101288.52
2018-05-29T04:07:30.348Z,101298.84
2018-05-29T04:09:57.831Z,101293.09
2018-05-29T04:12:25.300Z,101293.46
2018-05-29T04:14:52.813Z,101301.48
2018-05-29T04:17:20.283Z,101298.27
2018-05-29T04:19:47.755Z,101300.95
2018-05-29T04:22:15.281Z,101303.19
2018-05-29T04:24:42.892Z,101305.03
2018-05-29T04:27:10.455Z,101313.53
2018-05-29T04:29:37.954Z,101310.94
2018-05-29T04:32:05.459Z,101311.06
2018-05-29T04:34:33.040Z,101312.40
2018-05-29T04:37:00.577Z,101309.38
2018-05-29T04:39:28.105Z,101308.18
2018-05-29T04:41:55.631Z,101304.94
2018-05-29T04:44:23.104Z,101306.07
2018-05-29T04:46:50.721Z,101305.48
2018-05-29T04:49:18.218Z,101307.89
2018-05-29T04:51:45.719Z,101303.30
2018-05-29T04:54:13.202Z,101302.58
2018-05-29T04:56:40.743Z,101303.86
2018-05-29T04:59:08.265Z,101307.31
2018-05-29T05:01:35.752Z,101298.11
2018-05-29T05:04:03.263Z,101304.78
2018-05-29T05:06:30.787Z,101308.55
2018-05-29T05:08:58.321Z,101301.70
2018-05-29T05:11:25.780Z,101303.78
2018-05-29T05:13:53.343Z,101303.48
2018-05-29T05:16:20.820Z,101299.09
2018-05-29T05:18:48.914Z,101305.90
2018-05-29T05:21:17.067Z,101301.20
2018-05-29T05:23:44.685Z,101306.85
2018-05-29T05:26:12.165Z,101303.12
2018-05-29T05:28:39.667Z,101305.69
2018-05-29T05:31:07.179Z,101308.75
2018-05-29T05:33:34.646Z,101301.00
2018-05-29T05:36:02.176Z,101304.64
2018-05-29T05:38:29.673Z,101308.70
2018-05-29T05:40:57.184Z,101309.55
2018-05-29T05:43:24.672Z,101299.15
2018-05-29T05:45:52.200Z,101306.72
2018-05-29T05:48:19.705Z,101305.27
2018-05-29T05:50:47.608Z,101295.52
2018-05-29T05:53:15.108Z,101290.14
2018-05-29T05:55:42.728Z,101290.30
2018-05-29T05:58:10.202Z,101287.59
2018-05-29T06:00:37.719Z,101285.34
2018-05-29T06:03:05.193Z,101281.73
2018-05-29T06:05:32.782Z,101282.02
2018-05-29T06:08:00.299Z,101285.84
2018-05-29T06:10:27.767Z,101291.09
2018-05-29T06:12:55.278Z,101294.37
2018-05-29T06:15:22.870Z,101295.66
2018-05-29T06:17:50.366Z,101298.06
2018-05-29T06:20:17.901Z,101300.95
2018-05-29T06:22:45.422Z,101300.80
2018-05-29T06:25:12.934Z,101295.27
2018-05-29T06:27:40.447Z,101293.35
2018-05-29T06:30:07.945Z,101292.77
2018-05-29T06:32:35.475Z,101289.64
2018-05-29T06:35:02.999Z,101291.39
2018-05-29T06:37:30.810Z,101294.54
2018-05-29T06:39:58.320Z,101285.78
2018-05-29T06:42:25.815Z,101284.47
2018-05-29T06:44:53.383Z,101275.86
2018-05-29T06:47:20.872Z,101286.22
2018-05-29T06:49:48.389Z,101285.27
2018-05-29T06:52:15.883Z,101288.13
2018-05-29T06:54:43.424Z,101283.14
2018-05-29T06:57:10.925Z,101284.02
2018-05-29T06:59:38.482Z,101283.20
2018-05-29T07:02:06.064Z,101289.38
2018-05-29T07:04:33.554Z,101288.75
2018-05-29T07:07:01.091Z,101291.66
2018-05-29T07:09:30.404Z,101289.09
2018-05-29T07:11:57.914Z,101287.84
2018-05-29T07:14:25.447Z,101291.84
2018-05-29T07:16:52.958Z,101287.48
2018-05-29T07:19:20.473Z,101285.23
2018-05-29T07:21:47.995Z,101282.54
2018-05-29T07:24:15.491Z,101284.38
2018-05-29T07:26:42.992Z,101283.33
2018-05-29T07:29:10.493Z,101275.45
2018-05-29T07:31:38.000Z,101267.89
2018-05-29T07:34:05.508Z,101267.05
2018-05-29T07:36:32.975Z,101259.12
2018-05-29T07:39:00.546Z,101254.70
2018-05-29T07:41:28.028Z,101250.17
2018-05-29T07:43:55.619Z,101254.44
2018-05-29T07:46:23.106Z,101246.60
2018-05-29T07:48:50.614Z,101245.61
2018-05-29T07:51:18.099Z,101245.20
2018-05-29T07:53:45.602Z,101242.36
2018-05-29T07:56:13.120Z,101239.04
2018-05-29T07:58:40.607Z,101236.91
2018-05-29T08:01:08.135Z,101239.77
2018-05-29T08:03:35.709Z,101238.27
2018-05-29T08:06:03.207Z,101237.33
2018-05-29T08:08:30.715Z,101243.08
2018-05-29T08:10:58.212Z,101234.56
2018-05-29T08:13:25.823Z,101237.23
2018-05-29T08:15:53.309Z,101238.41
2018-05-29T08:18:20.789Z,101237.13
2018-05-29T08:20:48.317Z,101238.23
2018-05-29T08:23:15.889Z,101231.01
2018-05-29T08:25:43.405Z,101235.98
2018-05-29T08:28:11.072Z,101234.03
2018-05-29T08:30:38.572Z,101236.33
2018-05-29T08:33:06.101Z,101236.58
2018-05-29T08:35:34.308Z,101231.31
2018-05-29T08:38:01.849Z,101232.76
2018-05-29T08:40:29.413Z,101228.70
2018-05-29T08:42:56.930Z,101232.61
2018-05-29T08:45:24.410Z,101222.89
2018-05-29T08:47:51.942Z,101219.56
2018-05-29T08:50:19.521Z,101217.97
2018-05-29T08:52:47.036Z,101214.47
2018-05-29T08:55:14.565Z,101210.34
2018-05-29T08:57:42.036Z,101205.00
2018-05-29T09:00:09.583Z,101202.16
2018-05-29T09:02:37.090Z,101195.03
2018-05-29T09:05:04.632Z,101201.14
2018-05-29T09:07:32.154Z,101200.86
2018-05-29T09:09:59.650Z,101200.13
2018-05-29T09:12:27.177Z,101201.33
2018-05-29T09:14:55.276Z,101200.13
2018-05-29T09:17:23.102Z,101200.75
2018-05-29T09:19:50.587Z,101193.31
2018-05-29T09:22:18.081Z,101192.44
2018-05-29T09:24:45.581Z,101187.41
2018-05-29T09:27:13.119Z,101186.59
2018-05-29T09:29:40.707Z,101183.09
2018-05-29T09:32:08.177Z,101179.17
2018-05-29T09:34:35.672Z,101176.92
2018-05-29T09:37:03.214Z,101171.17
2018-05-29T09:39:30.745Z,101174.03
2018-05-29T09:41:58.268Z,101175.39
2018-05-29T09:44:25.791Z,101176.31
2018-05-29T09:46:53.332Z,101172.34
2018-05-29T09:49:20.848Z,101172.92
2018-05-29T09:51:48.363Z,101169.33
2018-05-29T09:54:15.860Z,101169.87
2018-05-29T09:56:43.437Z,101166.77
2018-05-29T09:59:10.953Z,101162.53
2018-05-29T10:01:38.451Z,101159.86
2018-05-29T10:04:05.977Z,101157.99
2018-05-29T10:06:33.447Z,101160.90
2018-05-29T10:09:00.952Z,101161.02
2018-05-29T10:11:28.425Z,101151.39
2018-05-29T10:13:55.911Z,101150.38
2018-05-29T10:16:23.407Z,101146.98
2018-05-29T10:18:50.950Z,101146.02
2018-05-29T10:21:18.464Z,101152.95
2018-05-29T10:23:45.956Z,101142.77
2018-05-29T10:26:13.504Z,101144.45
2018-05-29T10:28:40.998Z,101139.44
2018-05-29T10:31:08.532Z,101140.73
2018-05-29T10:33:36.036Z,101125.50
2018-05-29T10:36:03.581Z,101126.33
2018-05-29T10:38:31.125Z,101129.84
2018-05-29T10:40:58.617Z,101126.27
2018-05-29T10:43:26.144Z,101123.61
2018-05-29T10:45:53.656Z,101114.20
2018-05-29T10:48:21.187Z,101111.44
2018-05-29T10:50:48.681Z,101113.31
2018-05-29T10:53:16.173Z,101105.81
2018-05-29T10:55:43.733Z,101100.95
2018-05-29T10:58:11.262Z,101101.45
2018-05-29T11:00:38.759Z,101098.22
2018-05-29T11:03:06.240Z,101093.50
2018-05-29T11:05:33.739Z,101101.36
2018-05-29T11:08:01.212Z,101097.55
2018-05-29T11:10:28.709Z,101099.31
2018-05-29T11:12:56.221Z,101097.58
2018-05-29T11:15:24.588Z,101087.58
2018-05-29T11:17:52.113Z,101092.05
2018-05-29T11:20:19.580Z,101082.52
2018-05-29T11:22:47.188Z,101089.77
2018-05-29T11:25:14.943Z,101078.11
2018-05-29T11:27:42.602Z,101077.30
2018-05-29T11:30:10.098Z,101068.92
2018-05-29T11:32:37.700Z,101070.63
2018-05-29T11:35:05.215Z,101074.70
2018-05-29T11:37:32.748Z,101078.04
2018-05-29T11:40:00.232Z,101063.41
2018-05-29T11:42:27.781Z,101073.01
2018-05-29T11:44:55.265Z,101063.67
2018-05-29T11:47:22.779Z,101060.67
2018-05-29T11:49:50.300Z,101055.61
2018-05-29T11:52:17.824Z,101052.22
2018-05-29T11:54:45.382Z,101057.80
2018-05-29T11:57:12.879Z,101050.75
2018-05-29T11:59:40.394Z,101056.52
2018-05-29T12:02:08.240Z,101053.58
2018-05-29T12:04:35.728Z,101054.20
2018-05-29T12:07:03.247Z,101046.83
2018-05-29T12:09:30.892Z,101043.98
2018-05-29T12:12:10.071Z,101037.90
2018-05-29T12:14:37.572Z,101034.31
2018-05-29T12:17:05.052Z,101034.72
2018-05-29T12:19:32.591Z,101028.43
2018-05-29T12:22:00.127Z,101025.73
2018-05-29T12:24:27.611Z,101019.30
2018-05-29T12:26:55.131Z,101022.97
2018-05-29T12:29:22.622Z,101014.75
2018-05-29T12:31:50.224Z,101011.16
2018-05-29T12:34:17.712Z,101015.72
2018-05-29T12:36:45.217Z,100991.39
2018-05-29T12:39:12.750Z,101004.98
2018-05-29T12:41:40.299Z,101008.09
2018-05-29T12:44:07.772Z,101006.19
2018-05-29T12:46:35.311Z,101012.22
2018-05-29T12:49:02.845Z,101001.66
2018-05-29T12:51:30.322Z,101000.22
2018-05-29T12:53:57.817Z,100998.55
2018-05-29T12:56:25.293Z,100987.68
2018-05-29T12:58:52.893Z,100991.41
2018-05-29T13:01:20.389Z,100986.45
2018-05-29T13:03:47.907Z,100979.84
2018-05-29T13:06:15.412Z,100984.34
2018-05-29T13:08:42.945Z,100985.48
2018-05-29T13:11:10.501Z,100984.08
2018-05-29T13:13:37.966Z,100985.83
2018-05-29T13:16:05.521Z,100983.05
2018-05-29T13:18:33.014Z,100963.67
2018-05-29T13:21:00.513Z,100978.08
2018-05-29T13:23:28.018Z,100971.75
2018-05-29T13:25:55.481Z,100970.20
2018-05-29T13:28:23.093Z,100977.94
2018-05-29T13:30:50.651Z,100968.52
2018-05-29T13:33:18.176Z,100964.41
2018-05-29T13:35:45.657Z,100968.73
2018-05-29T13:38:13.159Z,100953.56
2018-05-29T13:40:40.857Z,100956.25
2018-05-29T13:43:08.337Z,100945.73
2018-05-29T13:45:35.830Z,100944.69
2018-05-29T13:48:03.464Z,100947.73
2018-05-29T13:50:30.964Z,100945.59
2018-05-29T13:52:58.492Z,100951.85
2018-05-29T13:55:26.004Z,100947.05
2018-05-29T13:57:53.537Z,100939.72
2018-05-29T14:00:21.023Z,100947.63
2018-05-29T14:02:48.560Z,100942.19
2018-05-29T14:05:16.086Z,100933.03
2018-05-29T14:07:43.574Z,100935.34
2018-05-29T14:10:11.091Z,100927.99
2018-05-29T14:12:38.682Z,100931.15
2018-05-29T14:15:06.259Z,100923.37
2018-05-29T14:17:33.779Z,100917.99
2018-05-29T14:20:01.284Z,100911.71
2018-05-29T14:22:28.919Z,100912.45
2018-05-29T14:24:56.395Z,100911.48
2018-05-29T14:27:23.917Z,100913.19
2018-05-29T14:29:51.500Z,100907.44
2018-05-29T14:32:19.313Z,100906.41
2018-05-29T14:34:46.858Z,100898.19
2018-05-29T14:37:14.356Z,100896.14
2018-05-29T14:39:41.986Z,100894.91
2018-05-29T14:42:09.485Z,100888.63
2018-05-29T14:44:36.991Z,100891.88
2018-05-29T14:47:04.524Z,100886.88
2018-05-29T14:49:32.082Z,100885.58
2018-05-29T14:51:59.558Z,100884.06
2018-05-29T14:54:27.068Z,100886.44
2018-05-29T14:56:54.586Z,100880.91
2018-05-29T14:59:22.143Z,100875.12
2018-05-29T15:01:49.670Z,100880.11
2018-05-29T15:04:17.143Z,100877.17
2018-05-29T15:06:44.646Z,100880.06
2018-05-29T15:09:12.129Z,100875.84
2018-05-29T15:11:39.630Z,100877.94
2018-05-29T15:14:07.101Z,100869.36
2018-05-29T15:16:34.668Z,100869.84
2018-05-29T15:19:02.152Z,100868.98
2018-05-29T15:21:29.688Z,100861.55
2018-05-29T15:23:57.199Z,100863.96
2018-05-29T15:26:24.780Z,100854.92
2018-05-29T15:28:52.270Z,100854.27
2018-05-29T15:31:19.755Z,100853.80
2018-05-29T15:33:47.273Z,100850.35
2018-05-29T15:36:14.827Z,100845.77
2018-05-29T15:38:42.339Z,100851.49
2018-05-29T15:41:09.824Z,100851.64
2018-05-29T15:43:38.044Z,100844.38
2018-05-29T15:46:05.546Z,100845.80
2018-05-29T15:51:06.815Z,100833.40
2018-05-29T15:53:34.306Z,100830.34
2018-05-29T15:56:01.833Z,100831.23
2018-05-29T15:58:29.382Z,100823.59
2018-05-29T16:00:56.896Z,100827.44
2018-05-29T16:03:24.391Z,100829.30
2018-05-29T16:05:52.031Z,100826.86
2018-05-29T16:08:19.496Z,100819.09
2018-05-29T16:10:47.463Z,100815.70
2018-05-29T16:13:14.953Z,100801.11
2018-05-29T16:15:42.420Z,100814.55
2018-05-29T16:18:10.115Z,100809.78
2018-05-29T16:20:37.585Z,100807.92
2018-05-29T16:23:05.096Z,100808.78
2018-05-29T16:25:32.581Z,100796.53
2018-05-29T16:28:00.065Z,100805.38
2018-05-29T16:30:27.591Z,100801.45
2018-05-29T16:32:55.086Z,100796.50
2018-05-29T16:35:22.609Z,100789.39
2018-05-29T16:37:50.099Z,100791.05
2018-05-29T16:40:17.581Z,100786.69
2018-05-29T16:42:45.101Z,100794.94
2018-05-29T16:45:13.231Z,100802.19
2018-05-29T16:47:40.752Z,100805.55
2018-05-29T16:50:08.246Z,100795.23
2018-05-29T16:52:35.819Z,100800.13
2018-05-29T16:55:03.414Z,100797.58
2018-05-29T16:57:31.382Z,100799.52
2018-05-29T16:59:58.866Z,100806.94
2018-05-29T17:02:26.357Z,100799.58
2018-05-29T17:04:53.917Z,100809.87
2018-05-29T17:07:21.396Z,100806.47
2018-05-29T17:09:48.902Z,100806.84
2018-05-29T17:12:16.369Z,100808.94
2018-05-29T17:14:43.834Z,100810.56
2018-05-29T17:17:11.435Z,100799.78
2018-05-29T17:19:38.925Z,100798.47
2018-05-29T17:22:06.431Z,100799.48
2018-05-29T17:24:34.000Z,100799.11
2018-05-29T17:27:01.997Z,100796.58
2018-05-29T17:29:29.543Z,100798.22
2018-05-29T17:31:57.061Z,100801.22
2018-05-29T17:34:24.538Z,100794.48
2018-05-29T17:36:52.002Z,100792.45
2018-05-29T17:39:19.499Z,100795.53
2018-05-29T17:41:46.996Z,100794.64
2018-05-29T17:44:14.607Z,100798.83
2018-05-29T17:46:42.074Z,100797.23
2018-05-29T17:49:09.583Z,100796.25
2018-05-29T17:51:37.093Z,100791.84
2018-05-29T17:54:04.604Z,100801.23
2018-05-29T17:56:32.130Z,100800.69
2018-05-29T17:58:59.620Z,100804.34
2018-05-29T18:01:27.216Z,100807.90
2018-05-29T18:03:54.683Z,100809.34
2018-05-29T18:06:22.835Z,100814.73
2018-05-29T18:08:50.322Z,100815.41
2018-05-29T18:11:17.795Z,100817.20
2018-05-29T18:13:45.287Z,100819.52
2018-05-29T18:16:12.839Z,100819.44
2018-05-29T18:18:40.347Z,100823.33
2018-05-29T18:21:07.829Z,100825.72
2018-05-29T18:23:35.346Z,100832.38
2018-05-29T18:26:02.830Z,100837.63
2018-05-29T18:28:30.448Z,100835.67
2018-05-29T18:30:57.929Z,100838.88
2018-05-29T18:33:25.401Z,100837.91
2018-05-29T18:35:52.960Z,100840.35
2018-05-29T18:38:20.432Z,100846.31
2018-05-29T18:40:47.929Z,100840.83
2018-05-29T18:43:15.460Z,100840.72
2018-05-29T18:45:43.024Z,100848.22
2018-05-29T18:48:10.524Z,100852.52
2018-05-29T18:50:38.054Z,100853.75
2018-05-29T18:53:05.591Z,100853.25
2018-05-29T18:55:33.147Z,100852.94
2018-05-29T18:58:00.681Z,100849.07
2018-05-29T19:00:28.175Z,100851.14
2018-05-29T19:02:55.697Z,100844.19
2018-05-29T19:05:23.187Z,100847.59
2018-05-29T19:07:50.723Z,100848.34
2018-05-29T19:10:18.217Z,100841.34
2018-05-29T19:12:45.731Z,100851.77
2018-05-29T19:15:13.288Z,100851.05
2018-05-29T19:17:40.774Z,100846.66
2018-05-29T19:20:08.325Z,100843.73
2018-05-29T19:22:35.810Z,100848.83
2018-05-29T19:25:03.376Z,100857.33
2018-05-29T19:27:30.853Z,100851.72
2018-05-29T19:29:58.396Z,100848.88
2018-05-29T19:32:25.893Z,100858.88
2018-05-29T19:34:53.464Z,100855.45
2018-05-29T19:37:20.969Z,100863.66
2018-05-29T19:39:48.484Z,100866.45
2018-05-29T19:42:15.976Z,100873.78
2018-05-29T19:44:43.480Z,100874.45
2018-05-29T19:47:10.981Z,100863.92
2018-05-29T19:49:38.467Z,100871.83
2018-05-29T19:52:05.961Z,100871.17
2018-05-29T19:54:33.430Z,100873.66
2018-05-29T19:57:00.941Z,100871.34
2018-05-29T19:59:28.530Z,100880.38
2018-05-29T20:01:55.973Z,100876.82
2018-05-29T20:04:23.468Z,100875.87
2018-05-29T20:06:51.028Z,100878.41
2018-05-29T20:09:18.475Z,100877.94
2018-05-29T20:11:45.966Z,100882.55
2018-05-29T20:14:13.472Z,100875.67
2018-05-29T20:16:41.046Z,100885.44
2018-05-29T20:19:08.561Z,100873.88
2018-05-29T20:21:36.111Z,100878.98
2018-05-29T20:24:03.647Z,100882.66
2018-05-29T20:26:31.146Z,100873.27
2018-05-29T20:28:58.673Z,100870.91
2018-05-29T20:31:26.219Z,100873.95
2018-05-29T20:33:53.716Z,100871.44
2018-05-29T20:36:22.259Z,100868.83
2018-05-29T20:38:49.759Z,100873.71
2018-05-29T20:41:17.239Z,100870.66
2018-05-29T20:43:44.774Z,100868.54
2018-05-29T20:46:12.279Z,100874.42
2018-05-29T20:48:39.784Z,100868.97
2018-05-29T20:51:07.290Z,100871.27
2018-05-29T20:53:34.790Z,100867.74
2018-05-29T20:56:02.355Z,100870.84
2018-05-29T20:58:29.845Z,100864.52
2018-05-29T21:00:57.346Z,100865.78
2018-05-29T21:03:24.846Z,100872.14
2018-05-29T21:05:52.358Z,100877.06
2018-05-29T21:08:19.833Z,100878.67
2018-05-29T21:10:47.354Z,100882.30
2018-05-29T21:13:14.849Z,100897.61
2018-05-29T21:15:42.371Z,100907.53
2018-05-29T21:18:09.872Z,100913.88
2018-05-29T21:20:37.414Z,100912.16
2018-05-29T21:23:04.970Z,100912.17
2018-05-29T21:25:32.452Z,100910.21
2018-05-29T21:27:59.943Z,100911.84
2018-05-29T21:30:27.516Z,100912.73
2018-05-29T21:32:55.084Z,100911.80
2018-05-29T21:35:22.559Z,100904.91
2018-05-29T21:37:50.054Z,100895.73
2018-05-29T21:40:17.578Z,100898.41
2018-05-29T21:42:45.069Z,100897.15
2018-05-29T21:45:12.582Z,100896.97
2018-05-29T21:47:40.074Z,100884.78
2018-05-29T21:50:07.596Z,100892.58
2018-05-29T21:52:35.140Z,100888.53
2018-05-29T21:55:02.611Z,100896.46
2018-05-29T21:57:30.147Z,100898.88
2018-05-29T21:59:57.703Z,100897.61
2018-05-29T22:02:25.232Z,100902.23
2018-05-29T22:04:52.747Z,100909.98
2018-05-29T22:07:20.256Z,100906.88
2018-05-29T22:09:47.747Z,100903.16
2018-05-29T22:12:15.318Z,100913.17
2018-05-29T22:14:42.889Z,100906.81
2018-05-29T22:17:10.350Z,100906.48
2018-05-29T22:19:37.896Z,100905.47
2018-05-29T22:22:05.478Z,100902.23
2018-05-29T22:24:32.945Z,100904.45
2018-05-29T22:27:01.063Z,100903.42
2018-05-29T22:29:28.557Z,100907.25
2018-05-29T22:31:56.162Z,100909.94
2018-05-29T22:34:23.632Z,100913.34
2018-05-29T22:36:51.175Z,100925.28
2018-05-29T22:39:18.658Z,100924.55
2018-05-29T22:41:46.199Z,100921.99
2018-05-29T22:44:13.681Z,100918.21
2018-05-29T22:46:41.168Z,100913.99
2018-05-29T22:49:08.645Z,100911.27
2018-05-29T22:51:36.144Z,100905.04
2018-05-29T22:54:03.668Z,100903.34
2018-05-29T22:56:31.146Z,100904.20
2018-05-29T22:58:58.687Z,100908.35
2018-05-29T23:01:26.213Z,100908.69
2018-05-29T23:03:53.719Z,100905.25
2018-05-29T23:06:21.240Z,100908.14
2018-05-29T23:08:48.764Z,100905.53
2018-05-29T23:11:16.251Z,100896.97
2018-05-29T23:13:43.754Z,100902.19
2018-05-29T23:16:11.276Z,100898.06
2018-05-29T23:18:38.800Z,100894.86
2018-05-29T23:21:06.274Z,100896.41
2018-05-29T23:23:33.791Z,100900.49
2018-05-29T23:26:01.287Z,100905.02
2018-05-29T23:28:28.779Z,100903.66
2018-05-29T23:30:56.282Z,100903.56
2018-05-29T23:33:23.767Z,100908.69
2018-05-29T23:35:51.296Z,100908.52
2018-05-29T23:38:18.795Z,100898.02
2018-05-29T23:40:46.321Z,100905.77
2018-05-29T23:43:13.836Z,100908.38
2018-05-29T23:45:41.413Z,100914.14
2018-05-29T23:48:08.889Z,100915.25
2018-05-29T23:50:36.378Z,100916.69
2018-05-29T23:53:03.868Z,100921.86
2018-05-29T23:55:31.430Z,100926.83
2018-05-29T23:57:58.902Z,100929.98
